createdAt,value
2018-09-29T00:02:10.260Z,5.60
2018-09-29T00:04:45.025Z,5.50
2018-09-29T00:07:20.115Z,5.50
2018-09-29T00:09:55.119Z,5.60
2018-09-29T00:12:30.046Z,5.60
2018-09-29T00:15:05.038Z,5.50
2018-09-29T00:17:39.983Z,5.50
2018-09-29T00:20:14.931Z,5.60
2018-09-29T00:22:49.896Z,5.50
2018-09-29T00:25:24.878Z,5.50
2018-09-29T00:27:59.567Z,5.60
2018-09-29T00:30:34.257Z,5.60
2018-09-29T00:33:09.211Z,5.60
2018-09-29T00:35:44.024Z,5.50
2018-09-29T00:38:18.914Z,5.50
2018-09-29T00:40:53.631Z,5.60
2018-09-29T00:43:28.500Z,5.40
2018-09-29T00:46:03.356Z,5.40
2018-09-29T00:48:38.132Z,5.50
2018-09-29T00:51:12.951Z,5.50
2018-09-29T00:53:47.747Z,5.50
2018-09-29T00:56:22.627Z,5.60
2018-09-29T00:58:57.388Z,5.50
2018-09-29T01:01:32.228Z,5.50
2018-09-29T01:04:07.215Z,5.50
2018-09-29T01:06:42.163Z,5.50
2018-09-29T01:09:17.046Z,5.60
2018-09-29T01:11:51.831Z,5.60
2018-09-29T01:14:26.561Z,5.60
2018-09-29T01:17:01.509Z,5.80
2018-09-29T01:19:36.420Z,5.90
2018-09-29T01:22:11.374Z,6.00
2018-09-29T01:24:46.154Z,6.00
2018-09-29T01:27:20.968Z,6.00
2018-09-29T01:29:55.899Z,6.10
2018-09-29T01:32:30.653Z,6.00
2018-09-29T01:35:05.664Z,6.10
2018-09-29T01:37:40.660Z,6.10
2018-09-29T01:40:15.640Z,6.00
2018-09-29T01:42:50.555Z,6.00
2018-09-29T01:45:25.274Z,5.90
2018-09-29T01:47:59.979Z,5.90
2018-09-29T01:50:34.756Z,5.70
2018-09-29T01:53:09.595Z,5.70
2018-09-29T01:55:44.252Z,5.70
2018-09-29T01:58:18.828Z,5.70
2018-09-29T02:00:53.700Z,5.60
2018-09-29T02:03:28.643Z,5.60
2018-09-29T02:06:03.356Z,5.60
2018-09-29T02:08:38.184Z,5.50
2018-09-29T02:11:13.072Z,5.50
2018-09-29T02:13:47.896Z,5.40
2018-09-29T02:16:22.663Z,5.40
2018-09-29T02:18:57.496Z,5.30
2018-09-29T02:21:32.309Z,5.30
2018-09-29T02:24:07.481Z,5.30
2018-09-29T02:26:42.168Z,5.40
2018-09-29T02:29:16.924Z,5.60
2018-09-29T02:31:51.802Z,5.70
2018-09-29T02:34:26.460Z,5.80
2018-09-29T02:37:01.305Z,6.00
2018-09-29T02:39:36.111Z,6.10
2018-09-29T02:42:10.907Z,6.30
2018-09-29T02:44:45.713Z,6.30
2018-09-29T02:47:20.365Z,6.30
2018-09-29T02:49:55.267Z,6.30
2018-09-29T02:52:29.996Z,6.30
2018-09-29T02:55:05.249Z,6.10
2018-09-29T02:57:40.059Z,6.10
2018-09-29T03:00:14.964Z,6.10
2018-09-29T03:02:49.648Z,6.10
2018-09-29T03:05:24.458Z,6.00
2018-09-29T03:07:59.245Z,5.90
2018-09-29T03:10:34.272Z,5.90
2018-09-29T03:13:09.004Z,5.80
2018-09-29T03:15:43.799Z,5.80
2018-09-29T03:18:18.691Z,5.70
2018-09-29T03:20:53.596Z,5.60
2018-09-29T03:23:28.281Z,5.60
2018-09-29T03:26:03.012Z,5.70
2018-09-29T03:28:37.688Z,5.60
2018-09-29T03:31:12.328Z,5.60
2018-09-29T03:33:47.264Z,5.60
2018-09-29T03:36:22.208Z,5.60
2018-09-29T03:38:57.152Z,5.50
2018-09-29T03:41:31.920Z,5.60
2018-09-29T03:44:06.777Z,5.80
2018-09-29T03:46:41.833Z,5.80
2018-09-29T03:49:16.759Z,5.80
2018-09-29T03:51:51.724Z,5.80
2018-09-29T03:54:26.397Z,5.70
2018-09-29T03:57:01.237Z,5.60
2018-09-29T03:59:36.109Z,5.50
2018-09-29T04:02:11.077Z,5.60
2018-09-29T04:04:45.845Z,5.70
2018-09-29T04:07:20.716Z,5.60
2018-09-29T04:09:55.499Z,5.70
2018-09-29T04:12:30.322Z,5.60
2018-09-29T04:15:05.765Z,5.80
2018-09-29T04:17:40.568Z,5.90
2018-09-29T04:20:15.351Z,6.00
2018-09-29T04:22:50.069Z,6.10
2018-09-29T04:25:24.724Z,6.10
2018-09-29T04:27:59.592Z,6.10
2018-09-29T04:30:34.494Z,6.20
2018-09-29T04:33:09.328Z,6.30
2018-09-29T04:35:44.062Z,6.40
2018-09-29T04:38:18.829Z,6.40
2018-09-29T04:40:53.655Z,6.40
2018-09-29T04:43:28.513Z,6.40
2018-09-29T04:46:03.332Z,6.40
2018-09-29T04:48:38.204Z,6.50
2018-09-29T04:51:13.036Z,6.60
2018-09-29T04:53:47.769Z,6.60
2018-09-29T04:56:22.663Z,6.60
2018-09-29T04:58:57.496Z,6.60
2018-09-29T05:01:32.288Z,6.70
2018-09-29T05:04:07.244Z,6.70
2018-09-29T05:06:42.198Z,6.80
2018-09-29T05:09:17.120Z,6.80
2018-09-29T05:11:51.916Z,6.80
2018-09-29T05:14:26.866Z,7.00
2018-09-29T05:17:01.918Z,7.00
2018-09-29T05:19:36.774Z,7.00
2018-09-29T05:22:11.611Z,7.00
2018-09-29T05:24:46.316Z,7.00
2018-09-29T05:27:21.293Z,7.00
2018-09-29T05:29:56.219Z,7.00
2018-09-29T05:32:31.075Z,6.90
2018-09-29T05:35:06.073Z,6.90
2018-09-29T05:37:40.876Z,6.90
2018-09-29T05:40:15.652Z,6.80
2018-09-29T05:42:50.614Z,6.90
2018-09-29T05:45:25.310Z,7.00
2018-09-29T05:48:00.200Z,7.10
2018-09-29T05:50:35.137Z,7.10
2018-09-29T05:53:10.104Z,7.20
2018-09-29T05:55:44.927Z,7.20
2018-09-29T05:58:19.819Z,7.20
2018-09-29T06:00:54.556Z,7.30
2018-09-29T06:03:29.429Z,7.30
2018-09-29T06:06:04.287Z,7.30
2018-09-29T06:08:39.227Z,7.40
2018-09-29T06:11:14.071Z,7.40
2018-09-29T06:13:48.894Z,7.50
2018-09-29T06:16:24.035Z,7.40
2018-09-29T06:18:58.684Z,7.50
2018-09-29T06:21:33.401Z,7.50
2018-09-29T06:24:08.245Z,7.60
2018-09-29T06:26:42.929Z,7.70
2018-09-29T06:29:17.683Z,7.70
2018-09-29T06:31:52.408Z,7.70
2018-09-29T06:34:27.109Z,7.80
2018-09-29T06:37:01.822Z,7.80
2018-09-29T06:39:36.632Z,7.80
2018-09-29T06:42:11.443Z,7.90
2018-09-29T06:44:46.225Z,8.00
2018-09-29T06:47:21.004Z,8.00
2018-09-29T06:49:56.076Z,8.00
2018-09-29T06:52:30.874Z,8.10
2018-09-29T06:55:05.680Z,8.00
2018-09-29T06:57:40.699Z,8.00
2018-09-29T07:00:15.571Z,8.10
2018-09-29T07:02:50.616Z,8.10
2018-09-29T07:05:25.423Z,8.20
2018-09-29T07:08:00.301Z,8.20
2018-09-29T07:10:35.141Z,8.10
2018-09-29T07:13:10.024Z,8.10
2018-09-29T07:15:44.820Z,8.10
2018-09-29T07:18:19.525Z,8.10
2018-09-29T07:20:54.270Z,8.20
2018-09-29T07:23:29.221Z,8.40
2018-09-29T07:26:04.037Z,8.60
2018-09-29T07:28:38.705Z,8.80
2018-09-29T07:31:13.668Z,9.00
2018-09-29T07:33:48.421Z,9.20
2018-09-29T07:36:23.232Z,9.30
2018-09-29T07:38:57.899Z,9.50
2018-09-29T07:41:32.848Z,9.70
2018-09-29T07:44:08.016Z,9.80
2018-09-29T07:46:42.839Z,9.90
2018-09-29T07:49:17.629Z,10.10
2018-09-29T07:51:52.593Z,10.10
2018-09-29T07:54:27.468Z,10.10
2018-09-29T07:57:02.408Z,10.20
2018-09-29T07:59:37.187Z,10.20
2018-09-29T08:02:11.892Z,10.20
2018-09-29T08:04:46.680Z,10.10
2018-09-29T08:07:21.380Z,10.10
2018-09-29T08:09:56.293Z,10.10
2018-09-29T08:12:31.084Z,10.20
2018-09-29T08:15:05.980Z,10.30
2018-09-29T08:17:40.794Z,10.40
2018-09-29T08:20:15.605Z,10.50
2018-09-29T08:22:50.307Z,10.50
2018-09-29T08:25:25.120Z,10.60
2018-09-29T08:27:59.935Z,10.70
2018-09-29T08:30:35.648Z,10.90
2018-09-29T08:33:10.357Z,10.90
2018-09-29T08:35:45.237Z,10.90
2018-09-29T08:38:20.210Z,11.00
2018-09-29T08:40:55.044Z,11.00
2018-09-29T08:43:29.965Z,11.10
2018-09-29T08:46:04.774Z,11.20
2018-09-29T08:48:39.504Z,11.30
2018-09-29T08:51:14.219Z,11.40
2018-09-29T08:53:49.083Z,11.60
2018-09-29T08:56:23.898Z,11.60
2018-09-29T08:58:58.731Z,11.70
2018-09-29T09:01:33.534Z,11.60
2018-09-29T09:04:08.547Z,11.70
2018-09-29T09:06:43.353Z,11.70
2018-09-29T09:09:18.255Z,11.90
2018-09-29T09:11:52.984Z,12.10
2018-09-29T09:14:27.813Z,12.20
2018-09-29T09:17:02.569Z,12.50
2018-09-29T09:19:37.535Z,12.70
2018-09-29T09:22:12.291Z,12.90
2018-09-29T09:24:47.291Z,13.10
2018-09-29T09:27:22.148Z,13.20
2018-09-29T09:29:56.973Z,13.30
2018-09-29T09:32:31.729Z,13.30
2018-09-29T09:35:06.556Z,13.40
2018-09-29T09:37:41.562Z,13.40
2018-09-29T09:40:16.452Z,13.60
2018-09-29T09:42:51.371Z,13.70
2018-09-29T09:45:26.076Z,13.90
2018-09-29T09:48:00.825Z,13.80
2018-09-29T09:50:35.784Z,13.70
2018-09-29T09:53:10.679Z,13.80
2018-09-29T09:55:45.503Z,13.80
2018-09-29T09:58:20.284Z,13.70
2018-09-29T10:01:00.421Z,13.80
2018-09-29T10:03:35.289Z,13.70
2018-09-29T10:06:10.092Z,13.80
2018-09-29T10:08:45.022Z,13.80
2018-09-29T10:11:19.760Z,14.00
2018-09-29T10:13:54.485Z,14.00
2018-09-29T10:16:29.358Z,14.20
2018-09-29T10:19:04.759Z,14.30
2018-09-29T10:21:39.604Z,14.10
2018-09-29T10:24:14.570Z,14.00
2018-09-29T10:26:49.444Z,14.30
2018-09-29T10:29:24.419Z,14.30
2018-09-29T10:31:59.302Z,14.00
2018-09-29T10:34:34.224Z,13.80
2018-09-29T10:37:09.276Z,13.70
2018-09-29T10:39:44.109Z,13.60
2018-09-29T10:42:19.040Z,13.90
2018-09-29T10:44:53.760Z,14.10
2018-09-29T10:47:28.549Z,14.20
2018-09-29T10:50:03.499Z,14.20
2018-09-29T10:52:38.269Z,14.30
2018-09-29T10:55:13.122Z,14.50
2018-09-29T10:57:48.024Z,14.50
2018-09-29T11:00:22.891Z,14.50
2018-09-29T11:02:57.660Z,14.50
2018-09-29T11:05:32.457Z,14.30
2018-09-29T11:08:07.345Z,14.30
2018-09-29T11:10:42.304Z,14.40
2018-09-29T11:13:17.111Z,14.40
2018-09-29T11:15:52.043Z,14.20
2018-09-29T11:18:26.816Z,14.30
2018-09-29T11:21:01.709Z,14.50
2018-09-29T11:23:36.580Z,14.60
2018-09-29T11:26:11.468Z,14.50
2018-09-29T11:28:46.396Z,14.30
2018-09-29T11:31:21.307Z,14.30
2018-09-29T11:33:55.996Z,14.30
2018-09-29T11:36:30.851Z,14.40
2018-09-29T11:39:08.430Z,14.50
2018-09-29T11:41:43.403Z,14.70
2018-09-29T11:44:18.187Z,14.70
2018-09-29T11:46:52.971Z,14.70
2018-09-29T11:49:27.816Z,14.70
2018-09-29T11:52:02.814Z,14.50
2018-09-29T11:54:37.776Z,14.50
2018-09-29T11:57:12.572Z,14.60
2018-09-29T11:59:47.476Z,14.50
2018-09-29T12:02:22.348Z,14.40
2018-09-29T12:04:57.239Z,14.40
2018-09-29T12:07:32.632Z,14.40
2018-09-29T12:10:07.612Z,14.40
2018-09-29T12:12:42.527Z,14.40
2018-09-29T12:15:17.336Z,14.30
2018-09-29T12:17:52.247Z,14.20
2018-09-29T12:20:27.166Z,14.10
2018-09-29T12:23:01.851Z,14.20
2018-09-29T12:25:36.724Z,14.20
2018-09-29T12:28:11.444Z,14.20
2018-09-29T12:30:46.343Z,14.20
2018-09-29T12:33:21.159Z,14.20
2018-09-29T12:35:56.066Z,14.20
2018-09-29T12:38:30.913Z,14.20
2018-09-29T12:41:05.847Z,14.30
2018-09-29T12:43:40.640Z,14.20
2018-09-29T12:46:15.509Z,14.20
2018-09-29T12:48:50.281Z,14.10
2018-09-29T12:51:25.185Z,14.10
2018-09-29T12:53:59.926Z,14.00
2018-09-29T12:56:34.716Z,14.10
2018-09-29T12:59:09.475Z,14.00
2018-09-29T13:01:44.445Z,13.90
2018-09-29T13:04:19.444Z,13.80
2018-09-29T13:06:54.329Z,13.80
2018-09-29T13:09:29.185Z,13.80
2018-09-29T13:12:04.088Z,13.80
2018-09-29T13:14:38.857Z,13.80
2018-09-29T13:17:13.788Z,13.80
2018-09-29T13:19:48.552Z,13.80
2018-09-29T13:22:23.396Z,13.80
2018-09-29T13:24:58.127Z,13.90
2018-09-29T13:27:33.012Z,13.90
2018-09-29T13:30:07.989Z,14.00
2018-09-29T13:32:42.945Z,13.90
2018-09-29T13:35:17.776Z,13.80
2018-09-29T13:37:52.756Z,13.80
2018-09-29T13:40:27.759Z,13.70
2018-09-29T13:43:02.589Z,13.60
2018-09-29T13:45:37.435Z,13.40
2018-09-29T13:48:12.273Z,13.20
2018-09-29T13:50:47.059Z,13.00
2018-09-29T13:53:22.002Z,12.90
2018-09-29T13:55:56.842Z,12.90
2018-09-29T13:58:31.564Z,12.90
2018-09-29T14:01:06.436Z,12.90
2018-09-29T14:03:41.395Z,12.90
2018-09-29T14:06:16.130Z,13.00
2018-09-29T14:08:51.057Z,13.10
2018-09-29T14:11:26.009Z,13.10
2018-09-29T14:14:00.913Z,13.30
2018-09-29T14:16:35.612Z,13.40
2018-09-29T14:19:10.568Z,13.50
2018-09-29T14:21:45.392Z,13.40
2018-09-29T14:24:20.311Z,13.50
2018-09-29T14:26:55.260Z,13.40
2018-09-29T14:29:30.087Z,13.40
2018-09-29T14:32:05.121Z,13.30
2018-09-29T14:34:40.084Z,13.30
2018-09-29T14:37:14.899Z,13.30
2018-09-29T14:39:49.697Z,13.30
2018-09-29T14:42:24.489Z,13.20
2018-09-29T14:44:59.476Z,13.30
2018-09-29T14:47:34.301Z,13.30
2018-09-29T14:50:09.157Z,13.30
2018-09-29T14:52:44.128Z,13.30
2018-09-29T14:55:18.964Z,13.20
2018-09-29T14:57:53.794Z,13.20
2018-09-29T15:00:28.625Z,13.20
2018-09-29T15:03:03.465Z,13.20
2018-09-29T15:05:38.438Z,13.20
2018-09-29T15:08:13.342Z,13.20
2018-09-29T15:10:48.051Z,13.10
2018-09-29T15:13:23.044Z,13.20
2018-09-29T15:15:57.955Z,13.20
2018-09-29T15:18:32.884Z,13.20
2018-09-29T15:21:07.753Z,13.20
2018-09-29T15:23:42.538Z,13.30
2018-09-29T15:26:17.363Z,13.30
2018-09-29T15:28:52.149Z,13.30
2018-09-29T15:31:27.036Z,13.30
2018-09-29T15:34:01.866Z,13.40
2018-09-29T15:36:36.730Z,13.30
2018-09-29T15:39:12.547Z,13.30
2018-09-29T15:41:47.289Z,13.30
2018-09-29T15:44:22.153Z,13.20
2018-09-29T15:46:56.805Z,13.20
2018-09-29T15:49:31.663Z,13.20
2018-09-29T15:52:06.513Z,13.20
2018-09-29T15:54:41.320Z,13.20
2018-09-29T15:57:16.431Z,13.20
2018-09-29T15:59:51.479Z,13.20
2018-09-29T16:02:26.769Z,13.20
2018-09-29T16:05:01.545Z,13.10
2018-09-29T16:07:36.433Z,13.00
2018-09-29T16:10:11.352Z,12.90
2018-09-29T16:12:46.228Z,12.90
2018-09-29T16:15:21.100Z,12.80
2018-09-29T16:17:55.956Z,12.70
2018-09-29T16:20:30.702Z,12.60
2018-09-29T16:23:05.558Z,12.60
2018-09-29T16:25:40.392Z,12.50
2018-09-29T16:28:15.291Z,12.50
2018-09-29T16:30:50.305Z,12.50
2018-09-29T16:33:25.051Z,12.60
2018-09-29T16:35:59.864Z,12.50
2018-09-29T16:38:34.584Z,12.60
2018-09-29T16:41:09.411Z,12.50
2018-09-29T16:43:44.352Z,12.60
2018-09-29T16:46:19.217Z,12.40
2018-09-29T16:48:54.104Z,12.30
2018-09-29T16:51:28.932Z,12.20
2018-09-29T16:54:03.891Z,12.10
2018-09-29T16:56:38.672Z,12.00
2018-09-29T16:59:13.592Z,12.00
2018-09-29T17:01:49.243Z,12.00
2018-09-29T17:04:24.084Z,12.10
2018-09-29T17:06:58.931Z,12.10
2018-09-29T17:09:33.748Z,12.00
2018-09-29T17:12:08.772Z,12.00
2018-09-29T17:14:43.563Z,12.00
2018-09-29T17:17:18.465Z,12.00
2018-09-29T17:19:53.411Z,11.90
2018-09-29T17:22:28.164Z,11.90
2018-09-29T17:25:03.220Z,11.90
2018-09-29T17:27:38.085Z,11.90
2018-09-29T17:30:12.805Z,11.80
2018-09-29T17:32:47.681Z,11.80
2018-09-29T17:35:22.351Z,11.80
2018-09-29T17:37:57.253Z,11.80
2018-09-29T17:40:32.073Z,11.80
2018-09-29T17:43:06.992Z,11.70
2018-09-29T17:45:41.697Z,11.60
2018-09-29T17:48:16.741Z,11.50
2018-09-29T17:50:51.461Z,11.50
2018-09-29T17:53:26.349Z,11.40
2018-09-29T17:56:01.125Z,11.30
2018-09-29T17:58:35.925Z,11.20
2018-09-29T18:01:10.627Z,11.10
2018-09-29T18:03:45.419Z,11.00
2018-09-29T18:06:20.292Z,10.90
2018-09-29T18:08:55.311Z,10.90
2018-09-29T18:11:30.048Z,10.80
2018-09-29T18:14:04.902Z,10.70
2018-09-29T18:16:39.663Z,10.70
2018-09-29T18:19:14.461Z,10.70
2018-09-29T18:21:49.333Z,10.60
2018-09-29T18:24:23.997Z,10.50
2018-09-29T18:26:58.883Z,10.50
2018-09-29T18:29:33.537Z,10.40
2018-09-29T18:32:08.815Z,10.30
2018-09-29T18:34:43.508Z,10.30
2018-09-29T18:37:18.317Z,10.20
2018-09-29T18:39:53.226Z,10.10
2018-09-29T18:42:28.052Z,10.10
2018-09-29T18:45:02.774Z,10.00
2018-09-29T18:47:37.620Z,9.90
2018-09-29T18:50:12.617Z,9.80
2018-09-29T18:52:47.536Z,9.70
2018-09-29T18:55:22.237Z,9.60
2018-09-29T18:57:57.161Z,9.60
2018-09-29T19:00:32.068Z,9.60
2018-09-29T19:03:06.793Z,9.60
2018-09-29T19:05:41.683Z,9.50
2018-09-29T19:08:16.364Z,9.60
2018-09-29T19:10:51.186Z,9.50
2018-09-29T19:13:26.225Z,9.50
2018-09-29T19:16:01.181Z,9.60
2018-09-29T19:18:36.172Z,9.70
2018-09-29T19:21:11.036Z,9.80
2018-09-29T19:23:45.941Z,9.90
2018-09-29T19:26:20.813Z,10.00
2018-09-29T19:28:55.572Z,10.00
2018-09-29T19:31:30.452Z,10.00
2018-09-29T19:34:05.334Z,10.00
2018-09-29T19:36:40.112Z,10.00
2018-09-29T19:39:14.811Z,10.00
2018-09-29T19:41:49.630Z,10.00
2018-09-29T19:44:24.461Z,9.90
2018-09-29T19:46:59.285Z,9.80
2018-09-29T19:49:34.091Z,9.80
2018-09-29T19:52:08.991Z,9.70
2018-09-29T19:54:43.745Z,9.60
2018-09-29T19:57:18.484Z,9.60
2018-09-29T19:59:53.294Z,9.50
2018-09-29T20:02:28.136Z,9.50
2018-09-29T20:05:03.069Z,9.40
2018-09-29T20:07:37.777Z,9.30
2018-09-29T20:10:12.519Z,9.30
2018-09-29T20:12:47.278Z,9.30
2018-09-29T20:15:22.177Z,9.30
2018-09-29T20:17:57.023Z,9.20
2018-09-29T20:20:31.960Z,9.20
2018-09-29T20:23:06.785Z,9.10
2018-09-29T20:25:41.752Z,9.00
2018-09-29T20:28:16.639Z,8.90
2018-09-29T20:30:51.656Z,8.90
2018-09-29T20:33:26.634Z,8.90
2018-09-29T20:36:01.393Z,8.80
2018-09-29T20:38:36.241Z,8.80
2018-09-29T20:41:10.881Z,8.90
2018-09-29T20:43:45.648Z,8.80
2018-09-29T20:46:20.472Z,8.70
2018-09-29T20:48:55.428Z,8.70
2018-09-29T20:51:30.376Z,8.60
2018-09-29T20:54:05.552Z,8.60
2018-09-29T20:56:40.504Z,8.60
2018-09-29T20:59:15.309Z,8.60
2018-09-29T21:01:50.064Z,8.60
2018-09-29T21:04:24.900Z,8.60
2018-09-29T21:06:59.672Z,8.70
2018-09-29T21:09:34.528Z,8.70
2018-09-29T21:12:09.391Z,8.60
2018-09-29T21:14:44.251Z,8.60
2018-09-29T21:17:19.036Z,8.70
2018-09-29T21:19:53.759Z,8.70
2018-09-29T21:22:28.672Z,8.70
2018-09-29T21:25:03.455Z,8.70
2018-09-29T21:27:38.287Z,8.80
2018-09-29T21:30:13.103Z,8.70
2018-09-29T21:32:47.971Z,8.70
2018-09-29T21:35:22.900Z,8.70
2018-09-29T21:37:57.612Z,8.70
2018-09-29T21:40:32.545Z,8.60
2018-09-29T21:43:07.372Z,8.50
2018-09-29T21:45:42.176Z,8.60
2018-09-29T21:48:17.092Z,8.50
2018-09-29T21:50:51.720Z,8.60
2018-09-29T21:53:26.555Z,8.70
2018-09-29T21:56:01.288Z,8.60
2018-09-29T21:58:36.147Z,8.50
2018-09-29T22:01:16.335Z,8.50
2018-09-29T22:03:51.243Z,8.50
2018-09-29T22:06:26.217Z,8.50
2018-09-29T22:09:01.157Z,8.50
2018-09-29T22:11:35.950Z,8.50
2018-09-29T22:14:10.845Z,8.40
2018-09-29T22:16:46.003Z,8.50
2018-09-29T22:19:20.853Z,8.50
2018-09-29T22:21:55.648Z,8.60
2018-09-29T22:24:30.480Z,8.60
2018-09-29T22:27:05.270Z,8.60
2018-09-29T22:29:40.089Z,8.60
2018-09-29T22:32:14.880Z,8.50
2018-09-29T22:34:49.752Z,8.60
2018-09-29T22:37:24.437Z,8.60
2018-09-29T22:39:59.265Z,8.60
2018-09-29T22:42:34.211Z,8.60
2018-09-29T22:45:09.230Z,8.60
2018-09-29T22:47:44.008Z,8.50
2018-09-29T22:50:18.737Z,8.30
2018-09-29T22:52:53.766Z,8.20
2018-09-29T22:55:28.636Z,8.30
2018-09-29T22:58:03.457Z,8.20
2018-09-29T23:00:38.177Z,8.20
2018-09-29T23:03:13.184Z,8.20
2018-09-29T23:05:47.868Z,8.20
2018-09-29T23:08:22.700Z,8.10
2018-09-29T23:10:57.648Z,8.10
2018-09-29T23:13:32.431Z,8.10
2018-09-29T23:16:07.337Z,8.10
2018-09-29T23:18:42.287Z,8.10
2018-09-29T23:21:17.273Z,8.10
2018-09-29T23:23:52.141Z,8.00
2018-09-29T23:26:26.988Z,8.00
2018-09-29T23:29:01.916Z,8.00
2018-09-29T23:31:36.708Z,7.90
2018-09-29T23:34:11.548Z,8.00
2018-09-29T23:36:46.432Z,8.00
2018-09-29T23:39:21.356Z,8.00
2018-09-29T23:41:56.035Z,7.90
2018-09-29T23:44:30.793Z,7.90
2018-09-29T23:47:05.556Z,7.90
2018-09-29T23:49:40.349Z,7.80
2018-09-29T23:52:15.158Z,7.70
2018-09-29T23:54:49.883Z,7.60
2018-09-29T23:57:24.825Z,7.70
2018-09-29T23:59:59.525Z,7.80
